Time;durP1;ratioP1;P1;durP2;ratioP2;P2;SDS_P1;SDS_P2;PMS_P1;PMS_P2;Temp;Humidity;BMP_temperature;BMP_pressure;BME280_temperature;BME280_humidity;BME280_pressure;Samples;Min_cycle;Max_cycle;Signal;HPM_P1;HPM_P2
2022/06/09 00:04:48;;;;;;;15.13;10.75;;;;;;;;;;4395170;80;28489;-74
2022/06/09 00:10:53;;;;;;;14.25;11.03;;;;;;;;;;4406959;80;28543;-75
2022/06/09 00:16:54;;;;;;;14.10;10.63;;;;;;;;;;4384459;80;28498;-76
2022/06/09 00:22:55;;;;;;;15.35;10.80;;;;;;;;;;4444802;80;28538;-76
2022/06/09 00:28:56;;;;;;;16.62;12.20;;;;;;;;;;4423313;80;28541;-73
2022/06/09 00:34:58;;;;;;;15.60;11.53;;;;;;;;;;4397375;80;28541;-77
2022/06/09 00:41:00;;;;;;;17.60;12.63;;;;;;;;;;4424295;80;28487;-76
2022/06/09 00:47:11;;;;;;;13.05;8.58;;;;;;;;;;4405933;80;28560;-75
2022/06/09 00:53:24;;;;;;;3.58;2.50;;;;;;;;;;4371147;80;28512;-78
2022/06/09 01:05:40;;;;;;;3.00;2.00;;;;;;;;;;4105522;83;28577;-75
2022/06/09 01:11:42;;;;;;;3.17;2.42;;;;;;;;;;4173135;83;28552;-74
2022/06/09 01:18:02;;;;;;;3.62;2.30;;;;;;;;;;4190275;83;28515;-73
2022/06/09 01:24:24;;;;;;;3.85;2.15;;;;;;;;;;4175391;83;28550;-74
2022/06/09 01:30:47;;;;;;;3.45;2.27;;;;;;;;;;4139520;84;28574;-73
2022/06/09 01:37:00;;;;;;;4.67;2.55;;;;;;;;;;4223161;83;28546;-73
2022/06/09 01:43:04;;;;;;;5.00;2.47;;;;;;;;;;4403445;78;28556;-76
2022/06/09 01:49:24;;;;;;;3.50;2.20;;;;;;;;;;4349504;80;28519;-76
2022/06/09 01:55:26;;;;;;;5.33;2.27;;;;;;;;;;4352280;81;28527;-74
2022/06/09 02:01:31;;;;;;;4.70;2.30;;;;;;;;;;4427298;79;28555;-75
2022/06/09 02:07:33;;;;;;;4.58;2.40;;;;;;;;;;4437081;78;28517;-75
2022/06/09 02:13:39;;;;;;;4.75;2.72;;;;;;;;;;4396228;80;28473;-75
2022/06/09 02:19:41;;;;;;;6.73;3.77;;;;;;;;;;4498707;79;28512;-74
2022/06/09 02:25:42;;;;;;;8.80;3.72;;;;;;;;;;4457766;78;28488;-75
2022/06/09 02:31:44;;;;;;;5.42;3.00;;;;;;;;;;4450714;78;28498;-75
2022/06/09 02:37:45;;;;;;;5.08;3.60;;;;;;;;;;4384448;80;28531;-78
2022/06/09 02:43:46;;;;;;;6.17;3.50;;;;;;;;;;4375222;80;28517;-75
2022/06/09 02:49:47;;;;;;;7.00;3.47;;;;;;;;;;4391578;80;28539;-75
2022/06/09 02:55:48;;;;;;;6.60;3.67;;;;;;;;;;4379063;80;28549;-74
2022/06/09 03:01:49;;;;;;;5.45;3.17;;;;;;;;;;4389712;80;28488;-74
2022/06/09 03:07:51;;;;;;;6.65;3.60;;;;;;;;;;4389382;80;28480;-73
2022/06/09 03:13:52;;;;;;;7.65;3.72;;;;;;;;;;4418255;80;28490;-74
2022/06/09 03:19:53;;;;;;;5.75;3.27;;;;;;;;;;4410294;80;28619;-74
2022/06/09 03:25:54;;;;;;;4.72;3.12;;;;;;;;;;4380836;80;28509;-74
2022/06/09 03:31:56;;;;;;;8.33;3.52;;;;;;;;;;4371740;80;28496;-75
2022/06/09 03:37:58;;;;;;;7.25;3.80;;;;;;;;;;4314495;80;28525;-75
2022/06/09 03:43:59;;;;;;;7.03;3.42;;;;;;;;;;4309737;82;28567;-76
2022/06/09 03:50:00;;;;;;;5.65;3.80;;;;;;;;;;4314745;82;28853;-76
2022/06/09 03:56:01;;;;;;;5.17;3.25;;;;;;;;;;4311365;82;28552;-74
2022/06/09 04:02:02;;;;;;;6.58;3.52;;;;;;;;;;4304537;82;28449;-75
2022/06/09 04:08:04;;;;;;;6.20;3.62;;;;;;;;;;4284752;82;28564;-76
2022/06/09 04:14:05;;;;;;;6.20;3.52;;;;;;;;;;4292183;82;28574;-76
2022/06/09 04:20:08;;;;;;;7.25;3.95;;;;;;;;;;4296070;82;28541;-75
2022/06/09 04:26:15;;;;;;;6.83;4.10;;;;;;;;;;4300988;82;28556;-75
2022/06/09 04:32:17;;;;;;;7.12;4.65;;;;;;;;;;4296099;82;28538;-75
2022/06/09 04:38:18;;;;;;;8.70;5.03;;;;;;;;;;4345972;80;28509;-75
2022/06/09 04:44:19;;;;;;;7.58;5.45;;;;;;;;;;4355631;80;28504;-75
2022/06/09 04:50:20;;;;;;;12.78;7.20;;;;;;;;;;4430664;79;28532;-75
2022/06/09 04:56:22;;;;;;;12.33;8.20;;;;;;;;;;4378406;80;28493;-75
2022/06/09 05:02:23;;;;;;;12.18;7.78;;;;;;;;;;4443046;78;28461;-75
2022/06/09 05:08:25;;;;;;;12.40;7.92;;;;;;;;;;4361425;80;28499;-81
2022/06/09 05:14:26;;;;;;;13.75;8.48;;;;;;;;;;4399805;80;28476;-77
2022/06/09 05:20:27;;;;;;;11.63;8.05;;;;;;;;;;4368467;80;28526;-75
2022/06/09 05:26:28;;;;;;;11.50;7.55;;;;;;;;;;4450793;78;28529;-76
2022/06/09 05:32:29;;;;;;;9.83;6.97;;;;;;;;;;4347467;80;28552;-76
2022/06/09 05:44:54;;;;;;;9.00;6.17;;;;;;;;;;4403204;79;28494;-75
2022/06/09 05:50:55;;;;;;;15.58;6.37;;;;;;;;;;4438878;79;28497;-74
2022/06/09 05:56:57;;;;;;;10.88;7.35;;;;;;;;;;4431056;79;28570;-72
2022/06/09 06:02:58;;;;;;;12.25;7.08;;;;;;;;;;4404283;79;28512;-74
2022/06/09 06:09:05;;;;;;;13.35;7.78;;;;;;;;;;4428463;79;28579;-73
2022/06/09 06:15:07;;;;;;;16.93;8.80;;;;;;;;;;4425761;78;28530;-76
2022/06/09 06:21:11;;;;;;;17.12;8.98;;;;;;;;;;4405873;79;28557;-76
2022/06/09 06:27:16;;;;;;;19.75;10.50;;;;;;;;;;4412451;79;28535;-76
2022/06/09 06:33:14;;;;;;;19.10;11.50;;;;;;;;;;4408082;79;28508;-76
2022/06/09 06:39:16;;;;;;;21.42;10.75;;;;;;;;;;4415525;79;28563;-75
2022/06/09 06:45:17;;;;;;;19.55;11.55;;;;;;;;;;4423581;79;28571;-76
2022/06/09 06:51:18;;;;;;;20.75;13.13;;;;;;;;;;4407650;79;28528;-73
2022/06/09 06:57:19;;;;;;;32.45;16.85;;;;;;;;;;4400502;79;28516;-74
2022/06/09 07:03:20;;;;;;;37.13;18.75;;;;;;;;;;4433605;79;28499;-72
2022/06/09 07:09:21;;;;;;;49.53;21.90;;;;;;;;;;4430366;79;28522;-73
2022/06/09 07:15:23;;;;;;;45.38;20.43;;;;;;;;;;4438787;79;28550;-73
2022/06/09 07:21:24;;;;;;;49.15;21.02;;;;;;;;;;4417118;79;28496;-74
2022/06/09 07:27:25;;;;;;;47.60;22.15;;;;;;;;;;4416680;79;28555;-73
2022/06/09 07:33:30;;;;;;;44.05;22.00;;;;;;;;;;4460270;79;28500;-73
2022/06/09 07:39:31;;;;;;;43.65;21.77;;;;;;;;;;4465745;78;28532;-73
2022/06/09 07:45:32;;;;;;;35.98;20.35;;;;;;;;;;4461667;79;28525;-73
2022/06/09 07:51:34;;;;;;;40.52;22.30;;;;;;;;;;4381733;80;28584;-74
2022/06/09 07:57:35;;;;;;;38.35;20.50;;;;;;;;;;4390760;80;28459;-73
2022/06/09 08:03:39;;;;;;;31.73;19.07;;;;;;;;;;4389492;80;28525;-74
2022/06/09 08:09:39;;;;;;;34.75;18.75;;;;;;;;;;4391197;80;28572;-74
2022/06/09 08:15:42;;;;;;;28.50;17.70;;;;;;;;;;4420692;80;28526;-73
2022/06/09 08:21:43;;;;;;;34.40;20.15;;;;;;;;;;4386043;80;28505;-74
2022/06/09 08:27:46;;;;;;;30.48;19.40;;;;;;;;;;4422263;80;28922;-73
2022/06/09 08:33:47;;;;;;;29.60;18.17;;;;;;;;;;4380345;80;28542;-74
2022/06/09 08:39:48;;;;;;;26.73;17.60;;;;;;;;;;4399346;80;28474;-73
2022/06/09 08:45:53;;;;;;;28.40;17.65;;;;;;;;;;4385344;80;28562;-73
2022/06/09 08:52:01;;;;;;;27.93;17.82;;;;;;;;;;4376661;80;28497;-73
2022/06/09 08:58:08;;;;;;;26.35;16.45;;;;;;;;;;4388841;80;28497;-73
2022/06/09 09:04:28;;;;;;;26.77;17.12;;;;;;;;;;4360118;80;28623;-73
2022/06/09 09:10:33;;;;;;;25.43;17.07;;;;;;;;;;4373680;80;28566;-72
2022/06/09 09:16:38;;;;;;;32.17;19.42;;;;;;;;;;4388316;80;28540;-72
2022/06/09 09:23:11;;;;;;;30.90;18.53;;;;;;;;;;4400577;80;28544;-73
2022/06/09 09:29:18;;;;;;;34.23;21.25;;;;;;;;;;4349680;80;28543;-72
2022/06/09 09:35:25;;;;;;;34.78;20.90;;;;;;;;;;4434271;79;28544;-72
2022/06/09 09:41:36;;;;;;;40.98;23.00;;;;;;;;;;4386010;80;28548;-72
2022/06/09 09:47:44;;;;;;;35.10;21.65;;;;;;;;;;4347036;81;28566;-72
2022/06/09 09:53:55;;;;;;;35.80;22.42;;;;;;;;;;4390876;79;28516;-72
2022/06/09 10:00:00;;;;;;;38.17;23.77;;;;;;;;;;4312896;80;28589;-71
2022/06/09 10:12:29;;;;;;;36.95;22.27;;;;;;;;;;4347879;81;28568;-72
2022/06/09 10:18:30;;;;;;;31.10;19.90;;;;;;;;;;4363370;81;28562;-72
2022/06/09 10:24:44;;;;;;;32.95;21.52;;;;;;;;;;4451952;78;28550;-72
2022/06/09 10:30:52;;;;;;;34.50;21.17;;;;;;;;;;4343887;80;28538;-72
2022/06/09 10:37:19;;;;;;;35.65;22.07;;;;;;;;;;4428806;78;28523;-73
2022/06/09 10:43:32;;;;;;;36.93;22.02;;;;;;;;;;4446885;78;28523;-72
2022/06/09 10:56:01;;;;;;;34.90;23.15;;;;;;;;;;4463102;78;28529;-72
2022/06/09 11:02:06;;;;;;;34.45;21.93;;;;;;;;;;4454407;78;28493;-72
2022/06/09 11:08:34;;;;;;;27.13;19.25;;;;;;;;;;4461682;78;28516;-71
2022/06/09 11:14:54;;;;;;;30.80;18.77;;;;;;;;;;4454085;78;28582;-72
2022/06/09 11:21:23;;;;;;;25.72;18.15;;;;;;;;;;4408104;79;28500;-73
2022/06/09 11:27:38;;;;;;;27.73;18.32;;;;;;;;;;4357673;80;28547;-72
2022/06/09 11:33:52;;;;;;;29.07;18.65;;;;;;;;;;4366804;80;28538;-72
2022/06/09 11:40:02;;;;;;;26.27;17.17;;;;;;;;;;4336594;80;28497;-72
2022/06/09 11:46:10;;;;;;;29.80;20.45;;;;;;;;;;4340798;81;28487;-72
2022/06/09 11:59:21;;;;;;;23.80;17.30;;;;;;;;;;4123406;84;28560;-72
2022/06/09 12:05:38;;;;;;;26.77;18.17;;;;;;;;;;4175262;84;28528;-72
2022/06/09 12:11:58;;;;;;;27.80;18.92;;;;;;;;;;4232678;83;28549;-71
2022/06/09 12:18:06;;;;;;;28.57;20.37;;;;;;;;;;4228651;83;28522;-71
2022/06/09 12:24:25;;;;;;;22.93;18.12;;;;;;;;;;4159651;84;28545;-71
2022/06/09 12:30:30;;;;;;;32.45;22.80;;;;;;;;;;4177060;84;28563;-71
2022/06/09 12:36:57;;;;;;;28.77;20.20;;;;;;;;;;4315543;79;28510;-71
2022/06/09 12:43:02;;;;;;;23.70;17.32;;;;;;;;;;4343661;81;28482;-71
2022/06/09 12:49:07;;;;;;;24.57;17.85;;;;;;;;;;4338740;81;28509;-71
2022/06/09 12:55:28;;;;;;;22.98;15.93;;;;;;;;;;4338852;81;28565;-72
2022/06/09 13:01:29;;;;;;;20.62;16.17;;;;;;;;;;4337328;82;28522;-71
2022/06/09 13:07:34;;;;;;;22.07;16.30;;;;;;;;;;4340427;81;28553;-72
2022/06/09 13:13:41;;;;;;;19.00;14.83;;;;;;;;;;4370361;81;28537;-73
2022/06/09 13:19:50;;;;;;;20.85;15.68;;;;;;;;;;4330687;82;28479;-73
2022/06/09 13:25:52;;;;;;;18.32;14.93;;;;;;;;;;4314082;81;28507;-72
2022/06/09 13:32:09;;;;;;;19.10;14.40;;;;;;;;;;4294414;81;28551;-73
2022/06/09 13:38:26;;;;;;;16.70;14.28;;;;;;;;;;4342351;81;28529;-74
2022/06/09 13:44:37;;;;;;;17.27;14.75;;;;;;;;;;4352022;81;28626;-72
2022/06/09 13:50:48;;;;;;;17.52;13.55;;;;;;;;;;4328399;81;28534;-73
2022/06/09 13:56:50;;;;;;;17.12;13.85;;;;;;;;;;4357261;81;28521;-73
2022/06/09 14:03:02;;;;;;;16.77;13.85;;;;;;;;;;4341106;81;28506;-72
2022/06/09 14:09:03;;;;;;;18.77;14.55;;;;;;;;;;4337107;81;28454;-73
2022/06/09 14:15:07;;;;;;;16.55;13.30;;;;;;;;;;4341861;81;28524;-73
2022/06/09 14:21:09;;;;;;;18.65;13.93;;;;;;;;;;4339965;81;28592;-73
2022/06/09 14:27:12;;;;;;;19.00;14.93;;;;;;;;;;4338480;81;28566;-73
2022/06/09 14:33:14;;;;;;;19.12;14.63;;;;;;;;;;4338251;81;28462;-73
2022/06/09 14:39:18;;;;;;;22.95;16.07;;;;;;;;;;4332911;81;28561;-73
2022/06/09 14:45:20;;;;;;;20.68;15.03;;;;;;;;;;4339006;81;28515;-74
2022/06/09 14:51:21;;;;;;;25.32;16.80;;;;;;;;;;4338139;81;28572;-72
2022/06/09 14:57:22;;;;;;;21.15;16.75;;;;;;;;;;4341228;81;28562;-72
2022/06/09 15:03:25;;;;;;;24.12;17.42;;;;;;;;;;4331141;81;28521;-73
2022/06/09 15:09:26;;;;;;;25.12;17.65;;;;;;;;;;4343449;81;28516;-73
2022/06/09 15:15:28;;;;;;;22.82;16.17;;;;;;;;;;4380850;80;28546;-72
2022/06/09 15:21:29;;;;;;;14.13;10.65;;;;;;;;;;4319546;81;28536;-72
2022/06/09 15:27:30;;;;;;;13.70;9.98;;;;;;;;;;4399568;80;28525;-74
2022/06/09 15:33:31;;;;;;;12.63;9.60;;;;;;;;;;4333671;81;28597;-75
2022/06/09 15:39:33;;;;;;;13.85;9.63;;;;;;;;;;4367793;80;28551;-73
2022/06/09 15:45:37;;;;;;;12.73;9.43;;;;;;;;;;4378045;80;28457;-75
2022/06/09 15:51:42;;;;;;;12.58;8.48;;;;;;;;;;4348756;80;28476;-73
2022/06/09 15:57:42;;;;;;;10.32;8.43;;;;;;;;;;4416483;79;28548;-74
2022/06/09 16:03:44;;;;;;;14.30;9.35;;;;;;;;;;4428451;79;28555;-75
2022/06/09 16:09:46;;;;;;;13.30;9.30;;;;;;;;;;4437908;79;28456;-76
2022/06/09 16:15:49;;;;;;;12.68;8.55;;;;;;;;;;4453882;78;28489;-76
2022/06/09 16:21:50;;;;;;;9.83;6.35;;;;;;;;;;4443951;79;28507;-76
2022/06/09 16:27:52;;;;;;;10.95;6.70;;;;;;;;;;4343544;80;28532;-75
2022/06/09 16:33:53;;;;;;;8.63;5.37;;;;;;;;;;4443130;78;28513;-74
2022/06/09 16:39:59;;;;;;;8.00;5.20;;;;;;;;;;4382107;79;28491;-75
2022/06/09 16:46:02;;;;;;;9.63;5.53;;;;;;;;;;4357732;80;28528;-75
2022/06/09 16:52:04;;;;;;;8.05;5.95;;;;;;;;;;4379157;80;28591;-74
2022/06/09 16:58:06;;;;;;;8.55;6.95;;;;;;;;;;4381959;80;28547;-75
2022/06/09 17:04:07;;;;;;;11.95;7.20;;;;;;;;;;4380926;80;28523;-74
2022/06/09 17:10:09;;;;;;;8.98;5.50;;;;;;;;;;4373606;80;28481;-75
2022/06/09 17:16:13;;;;;;;8.98;5.50;;;;;;;;;;4387940;80;28573;-72
2022/06/09 17:22:17;;;;;;;6.97;5.35;;;;;;;;;;4373654;80;28516;-73
2022/06/09 17:28:19;;;;;;;8.98;7.47;;;;;;;;;;4378366;81;28486;-73
2022/06/09 17:34:21;;;;;;;10.20;6.58;;;;;;;;;;4384537;80;28473;-74
2022/06/09 17:40:22;;;;;;;7.50;5.72;;;;;;;;;;4367867;80;28555;-74
2022/06/09 17:46:24;;;;;;;10.80;6.08;;;;;;;;;;4355927;80;28485;-76
2022/06/09 17:52:25;;;;;;;10.43;6.50;;;;;;;;;;4382902;80;28588;-74
2022/06/09 17:58:27;;;;;;;9.55;6.53;;;;;;;;;;4437250;79;28515;-74
2022/06/09 18:04:28;;;;;;;7.95;6.40;;;;;;;;;;4424252;79;28528;-74
2022/06/09 18:10:33;;;;;;;8.05;6.20;;;;;;;;;;4440943;79;28584;-73
2022/06/09 18:16:35;;;;;;;7.43;5.70;;;;;;;;;;4378064;79;28654;-73
2022/06/09 18:22:38;;;;;;;9.60;6.17;;;;;;;;;;4397789;80;28545;-74
2022/06/09 18:28:40;;;;;;;8.20;6.03;;;;;;;;;;4457579;79;28575;-75
2022/06/09 18:34:41;;;;;;;8.10;6.25;;;;;;;;;;4418483;79;28465;-72
2022/06/09 18:40:45;;;;;;;10.88;7.03;;;;;;;;;;4354628;80;28544;-72
2022/06/09 18:46:46;;;;;;;8.90;6.45;;;;;;;;;;4396238;79;28510;-72
2022/06/09 18:52:47;;;;;;;8.43;5.67;;;;;;;;;;4441468;79;28523;-72
2022/06/09 18:58:49;;;;;;;10.60;5.50;;;;;;;;;;4450689;79;28515;-72
2022/06/09 19:04:50;;;;;;;9.98;7.28;;;;;;;;;;4361552;80;28506;-72
2022/06/09 19:10:52;;;;;;;11.05;6.78;;;;;;;;;;4387900;80;28555;-72
2022/06/09 19:16:53;;;;;;;11.83;6.87;;;;;;;;;;4410690;79;28515;-73
2022/06/09 19:22:54;;;;;;;10.48;7.17;;;;;;;;;;4387245;80;28543;-72
2022/06/09 19:28:58;;;;;;;10.18;7.22;;;;;;;;;;4393873;79;28497;-74
2022/06/09 19:34:59;;;;;;;11.95;8.28;;;;;;;;;;4427981;79;28471;-77
2022/06/09 19:41:01;;;;;;;14.10;9.08;;;;;;;;;;4435479;79;28553;-76
2022/06/09 19:47:04;;;;;;;12.05;8.33;;;;;;;;;;4431636;79;28494;-75
2022/06/09 19:53:07;;;;;;;11.93;8.68;;;;;;;;;;4441867;79;28535;-75
2022/06/09 19:59:14;;;;;;;12.60;8.60;;;;;;;;;;4365677;80;28542;-76
2022/06/09 20:05:15;;;;;;;12.20;8.20;;;;;;;;;;4336993;80;28532;-76
2022/06/09 20:11:16;;;;;;;13.60;7.92;;;;;;;;;;4413735;80;28512;-75
2022/06/09 20:17:23;;;;;;;10.88;8.28;;;;;;;;;;4376454;80;28574;-75
2022/06/09 20:23:24;;;;;;;11.90;9.05;;;;;;;;;;4422285;80;28534;-75
2022/06/09 20:29:25;;;;;;;12.63;8.20;;;;;;;;;;4353846;80;28533;-76
2022/06/09 20:35:27;;;;;;;14.90;8.78;;;;;;;;;;4443106;79;28488;-76
2022/06/09 20:41:28;;;;;;;13.55;8.40;;;;;;;;;;4373889;79;28551;-76
2022/06/09 20:47:30;;;;;;;10.98;8.85;;;;;;;;;;4381677;80;28558;-77
2022/06/09 20:53:33;;;;;;;14.45;9.20;;;;;;;;;;4365234;80;28534;-75
2022/06/09 20:59:34;;;;;;;12.85;9.43;;;;;;;;;;4414974;79;28531;-76
2022/06/09 21:05:37;;;;;;;11.73;8.50;;;;;;;;;;4424458;79;28508;-75
2022/06/09 21:18:13;;;;;;;13.88;8.45;;;;;;;;;;4415954;79;28555;-77
2022/06/09 21:24:15;;;;;;;13.48;8.98;;;;;;;;;;4422611;79;28539;-77
2022/06/09 21:30:16;;;;;;;12.43;8.63;;;;;;;;;;4429037;79;28514;-77
2022/06/09 21:36:17;;;;;;;11.93;7.80;;;;;;;;;;4443813;79;28537;-77
2022/06/09 21:42:20;;;;;;;11.40;7.80;;;;;;;;;;4365883;80;28509;-77
2022/06/09 21:48:21;;;;;;;13.55;8.15;;;;;;;;;;4348061;80;28559;-80
2022/06/09 21:54:22;;;;;;;12.03;7.97;;;;;;;;;;4363486;80;28594;-75
2022/06/09 22:00:27;;;;;;;14.03;7.65;;;;;;;;;;4360647;80;28578;-76
2022/06/09 22:06:29;;;;;;;12.03;7.50;;;;;;;;;;4365575;80;28560;-76
2022/06/09 22:12:30;;;;;;;13.38;8.90;;;;;;;;;;4385810;80;28510;-76
2022/06/09 22:18:32;;;;;;;11.50;7.28;;;;;;;;;;4379798;80;28527;-75
2022/06/09 22:24:33;;;;;;;13.55;8.30;;;;;;;;;;4446544;79;28492;-75
2022/06/09 22:30:36;;;;;;;13.70;9.13;;;;;;;;;;4439998;79;28547;-75
2022/06/09 22:36:37;;;;;;;11.50;7.05;;;;;;;;;;4383045;80;28528;-74
2022/06/09 22:42:38;;;;;;;11.33;7.35;;;;;;;;;;4421516;79;28557;-75
2022/06/09 22:48:39;;;;;;;11.75;6.87;;;;;;;;;;4456190;79;28564;-76
2022/06/09 22:54:40;;;;;;;10.68;7.22;;;;;;;;;;4444726;78;28572;-74
2022/06/09 23:00:45;;;;;;;10.40;6.67;;;;;;;;;;4434067;78;28495;-76
2022/06/09 23:06:46;;;;;;;12.68;8.63;;;;;;;;;;4449637;78;28545;-77
2022/06/09 23:12:47;;;;;;;12.45;8.90;;;;;;;;;;4461103;79;28539;-77
2022/06/09 23:18:48;;;;;;;13.93;9.85;;;;;;;;;;4436729;79;28540;-77
2022/06/09 23:24:49;;;;;;;14.43;9.73;;;;;;;;;;4480586;78;28453;-78
2022/06/09 23:30:50;;;;;;;15.65;8.63;;;;;;;;;;4365615;80;28487;-77
2022/06/09 23:36:52;;;;;;;12.93;9.43;;;;;;;;;;4447145;79;28532;-77
2022/06/09 23:42:54;;;;;;;15.70;9.83;;;;;;;;;;4398415;79;28610;-78
2022/06/09 23:48:55;;;;;;;14.58;9.33;;;;;;;;;;4450117;78;28526;-78
2022/06/09 23:54:57;;;;;;;16.65;10.40;;;;;;;;;;4441284;78;28545;-78
